createdAt,value
2022-09-02T00:02:09.087Z,51881.27
2022-09-02T00:04:39.194Z,51888.11
2022-09-02T00:07:09.149Z,51876.05
2022-09-02T00:09:40.672Z,51877.26
2022-09-02T00:12:13.041Z,51876.05
2022-09-02T00:14:42.875Z,51863.59
2022-09-02T00:17:12.914Z,51888.51
2022-09-02T00:19:42.629Z,51882.88
2022-09-02T00:22:12.457Z,51870.02
2022-09-02T00:24:42.330Z,51881.68
2022-09-02T00:27:12.226Z,51863.59
2022-09-02T00:29:42.114Z,51873.64
2022-09-02T00:32:12.110Z,51892.13
2022-09-02T00:34:41.895Z,51901.37
2022-09-02T00:37:11.707Z,51877.66
2022-09-02T00:39:41.889Z,51898.96
2022-09-02T00:42:12.285Z,51894.94
2022-09-02T00:44:42.199Z,51887.71
2022-09-02T00:47:12.003Z,51875.25
2022-09-02T00:49:42.069Z,51896.55
2022-09-02T00:52:13.270Z,51896.14
2022-09-02T00:54:44.721Z,51900.97
2022-09-02T00:57:16.296Z,51899.76
2022-09-02T00:59:48.053Z,51903.77
2022-09-02T01:02:18.450Z,51921.46
2022-09-02T01:04:48.396Z,51912.22
2022-09-02T01:07:18.255Z,51912.22
2022-09-02T01:09:48.051Z,51919.85
2022-09-02T01:12:18.708Z,51912.21
2022-09-02T01:14:48.518Z,51904.18
2022-09-02T01:17:20.685Z,51908.20
2022-09-02T01:19:51.084Z,51906.99
2022-09-02T01:22:21.350Z,51898.55
2022-09-02T01:24:51.290Z,51905.79
2022-09-02T01:27:21.682Z,51921.05
2022-09-02T01:29:53.659Z,51924.67
2022-09-02T01:32:24.429Z,51919.45
2022-09-02T01:34:54.219Z,51911.41
2022-09-02T01:37:24.125Z,51924.67
2022-09-02T01:39:54.535Z,51921.05
2022-09-02T01:42:24.692Z,51919.45
2022-09-02T01:44:55.608Z,51934.32
2022-09-02T01:47:26.607Z,51906.19
2022-09-02T01:49:57.253Z,51918.64
2022-09-02T01:52:27.327Z,51919.85
2022-09-02T01:54:57.562Z,51924.27
2022-09-02T01:57:27.437Z,51925.48
2022-09-02T01:59:57.641Z,51916.24
2022-09-02T02:02:29.074Z,51919.85
2022-09-02T02:04:59.007Z,51916.23
2022-09-02T02:07:29.199Z,51920.66
2022-09-02T02:09:59.063Z,51944.36
2022-09-02T02:12:30.869Z,51953.61
2022-09-02T02:15:02.642Z,51946.77
2022-09-02T02:17:32.417Z,51952.00
2022-09-02T02:20:02.329Z,51951.60
2022-09-02T02:22:32.181Z,51931.10
2022-09-02T02:25:02.136Z,51936.73
2022-09-02T02:27:32.611Z,51957.22
2022-09-02T02:30:05.532Z,51939.54
2022-09-02T02:32:36.077Z,51956.82
2022-09-02T02:35:06.289Z,51946.77
2022-09-02T02:37:36.589Z,51952.00
2022-09-02T02:40:07.064Z,51941.95
2022-09-02T02:42:36.872Z,51943.56
2022-09-02T02:45:09.267Z,51956.02
2022-09-02T02:47:46.352Z,51940.74
2022-09-02T02:50:17.406Z,51960.84
2022-09-02T02:52:49.280Z,51954.01
2022-09-02T02:55:19.917Z,51956.82
2022-09-02T02:57:49.821Z,51969.27
2022-09-02T03:00:22.207Z,51979.73
2022-09-02T03:02:52.409Z,51947.18
2022-09-02T03:05:23.137Z,51949.99
2022-09-02T03:07:53.814Z,51962.85
2022-09-02T03:10:25.970Z,51961.64
2022-09-02T03:12:56.670Z,51973.70
2022-09-02T03:15:26.690Z,51958.02
2022-09-02T03:17:56.632Z,51968.07
2022-09-02T03:20:26.708Z,51951.60
2022-09-02T03:22:59.362Z,51945.57
2022-09-02T03:25:35.403Z,51973.30
2022-09-02T03:28:08.451Z,51966.87
2022-09-02T03:30:38.850Z,51965.26
2022-09-02T03:33:08.680Z,51951.19
2022-09-02T03:35:41.511Z,51956.42
2022-09-02T03:38:11.556Z,51968.47
2022-09-02T03:40:42.788Z,51966.86
2022-09-02T03:43:12.517Z,51954.81
2022-09-02T03:45:43.141Z,51964.86
2022-09-02T03:48:14.976Z,51948.38
2022-09-02T03:50:46.831Z,51954.41
2022-09-02T03:53:20.361Z,51964.46
2022-09-02T03:55:57.987Z,51954.41
2022-09-02T03:58:29.398Z,51953.20
2022-09-02T04:01:00.243Z,51942.75
2022-09-02T04:03:30.622Z,51941.15
2022-09-02T04:06:00.839Z,51966.87
2022-09-02T04:08:31.061Z,51943.96
2022-09-02T04:11:07.639Z,51951.20
2022-09-02T04:13:37.858Z,51938.74
2022-09-02T04:16:11.499Z,51955.21
2022-09-02T04:18:41.498Z,51944.76
2022-09-02T04:21:13.938Z,51951.20
2022-09-02T04:23:44.801Z,51952.40
2022-09-02T04:26:15.055Z,51939.95
2022-09-02T04:28:44.981Z,51941.95
2022-09-02T04:31:16.259Z,51941.15
2022-09-02T04:33:47.131Z,51950.79
2022-09-02T04:36:18.745Z,51933.11
2022-09-02T04:38:50.339Z,51933.91
2022-09-02T04:41:21.506Z,51960.43
2022-09-02T04:43:52.405Z,51946.37
2022-09-02T04:46:29.730Z,51946.77
2022-09-02T04:49:05.393Z,51951.20
2022-09-02T04:51:35.723Z,51928.69
2022-09-02T04:54:06.726Z,51933.91
2022-09-02T04:56:38.029Z,51923.46
2022-09-02T04:59:09.206Z,51924.27
2022-09-02T05:01:40.021Z,51932.30
2022-09-02T05:04:15.441Z,51919.05
2022-09-02T05:06:48.440Z,51913.42
2022-09-02T05:09:21.121Z,51917.04
2022-09-02T05:12:04.824Z,51903.38
2022-09-02T05:14:45.615Z,51919.85
2022-09-02T05:17:15.894Z,51910.61
2022-09-02T05:19:47.360Z,51916.23
2022-09-02T05:22:18.118Z,51902.98
2022-09-02T05:24:48.276Z,51908.60
2022-09-02T05:27:18.187Z,51906.99
2022-09-02T05:29:48.535Z,51917.84
2022-09-02T05:32:19.916Z,51890.92
2022-09-02T05:34:51.108Z,51912.62
2022-09-02T05:37:21.173Z,51904.18
2022-09-02T05:39:51.431Z,51913.02
2022-09-02T05:42:21.935Z,51891.32
2022-09-02T05:44:53.759Z,51891.32
2022-09-02T05:47:26.072Z,51898.96
2022-09-02T05:49:56.086Z,51902.57
2022-09-02T05:52:27.132Z,51899.76
2022-09-02T05:54:58.003Z,51897.35
2022-09-02T05:57:28.571Z,51887.30
2022-09-02T06:00:09.691Z,51883.28
2022-09-02T06:02:45.946Z,51882.48
2022-09-02T06:05:33.476Z,51888.91
2022-09-02T06:08:10.467Z,51873.64
2022-09-02T06:10:45.051Z,51871.63
2022-09-02T06:13:23.067Z,51874.45
2022-09-02T06:15:55.393Z,51884.89
2022-09-02T06:18:28.683Z,51866.01
2022-09-02T06:20:59.403Z,51873.64
2022-09-02T06:23:34.933Z,51866.81
2022-09-02T06:26:05.110Z,51854.76
2022-09-02T06:28:35.767Z,51849.93
2022-09-02T06:31:09.743Z,51869.22
2022-09-02T06:33:41.729Z,51845.51
2022-09-02T06:36:12.787Z,51851.14
2022-09-02T06:38:45.962Z,51830.24
2022-09-02T06:41:17.154Z,51848.73
2022-09-02T06:43:47.409Z,51830.64
2022-09-02T06:46:24.438Z,51842.30
2022-09-02T06:48:56.680Z,51836.68
2022-09-02T06:51:30.185Z,51846.32
2022-09-02T06:54:01.522Z,51836.67
2022-09-02T06:56:35.288Z,51843.51
2022-09-02T06:59:05.398Z,51835.07
2022-09-02T07:02:11.831Z,51822.61
2022-09-02T07:05:01.628Z,51814.57
2022-09-02T07:07:32.044Z,51840.70
2022-09-02T07:10:10.234Z,51819.80
2022-09-02T07:12:40.651Z,51818.99
2022-09-02T07:15:16.822Z,51811.36
2022-09-02T07:17:49.893Z,51799.30
2022-09-02T07:20:29.751Z,51795.69
2022-09-02T07:23:02.831Z,51799.71
2022-09-02T07:25:34.950Z,51804.93
2022-09-02T07:28:07.810Z,51798.91
2022-09-02T07:30:40.531Z,51819.39
2022-09-02T07:33:14.887Z,51811.76
2022-09-02T07:35:45.997Z,51811.76
2022-09-02T07:38:17.915Z,51786.45
2022-09-02T07:40:51.005Z,51817.79
2022-09-02T07:43:29.619Z,51798.90
2022-09-02T07:46:01.220Z,51795.29
2022-09-02T07:48:34.896Z,51802.52
2022-09-02T07:51:06.115Z,51801.71
2022-09-02T07:53:36.302Z,51795.29
2022-09-02T07:56:06.597Z,51787.65
2022-09-02T07:58:37.464Z,51781.63
2022-09-02T08:01:08.416Z,51775.20
2022-09-02T08:03:38.717Z,51772.79
2022-09-02T08:06:10.718Z,51777.61
2022-09-02T08:08:42.282Z,51778.01
2022-09-02T08:11:13.056Z,51778.41
2022-09-02T08:13:43.100Z,51776.80
2022-09-02T08:16:13.501Z,51775.60
2022-09-02T08:18:46.618Z,51783.64
2022-09-02T08:21:16.882Z,51771.98
2022-09-02T08:23:51.629Z,51762.34
2022-09-02T08:26:23.414Z,51769.16
2022-09-02T08:28:53.878Z,51762.34
2022-09-02T08:31:28.360Z,51771.98
2022-09-02T08:33:58.462Z,51768.77
2022-09-02T08:36:28.716Z,51752.70
2022-09-02T08:38:59.109Z,51755.51
2022-09-02T08:41:31.520Z,51765.55
2022-09-02T08:44:01.870Z,51743.45
2022-09-02T08:46:33.189Z,51745.46
2022-09-02T08:49:06.402Z,51751.49
2022-09-02T08:51:37.931Z,51748.27
2022-09-02T08:54:09.872Z,51740.24
2022-09-02T08:56:40.370Z,51737.02
2022-09-02T08:59:10.458Z,51736.62
2022-09-02T09:01:44.618Z,51722.55
2022-09-02T09:04:17.457Z,51748.68
2022-09-02T09:06:54.277Z,51737.43
2022-09-02T09:09:27.209Z,51724.57
2022-09-02T09:12:03.689Z,51718.95
2022-09-02T09:14:34.689Z,51724.16
2022-09-02T09:17:08.920Z,51719.34
2022-09-02T09:19:41.555Z,51708.90
2022-09-02T09:22:12.180Z,51707.29
2022-09-02T09:24:45.385Z,51711.31
2022-09-02T09:27:16.045Z,51704.07
2022-09-02T09:29:46.745Z,51694.03
2022-09-02T09:32:19.741Z,51691.22
2022-09-02T09:35:05.290Z,51690.01
2022-09-02T09:37:36.640Z,51692.82
2022-09-02T09:40:26.750Z,51680.37
2022-09-02T09:42:57.618Z,51699.25
2022-09-02T09:45:32.537Z,51681.57
2022-09-02T09:48:12.275Z,51673.94
2022-09-02T09:50:42.163Z,51690.81
2022-09-02T09:53:19.293Z,51673.94
2022-09-02T09:55:56.981Z,51684.38
2022-09-02T09:58:29.223Z,51670.32
2022-09-02T10:01:00.986Z,51676.35
2022-09-02T10:03:33.171Z,51665.10
2022-09-02T10:06:19.169Z,51671.13
2022-09-02T10:08:54.153Z,51675.14
2022-09-02T10:11:25.188Z,51665.50
2022-09-02T10:14:00.356Z,51660.68
2022-09-02T10:16:48.934Z,51673.95
2022-09-02T10:19:22.692Z,51667.51
2022-09-02T10:22:05.704Z,51663.09
2022-09-02T10:24:44.333Z,51661.89
2022-09-02T10:27:16.628Z,51653.04
2022-09-02T10:29:50.951Z,51660.68
2022-09-02T10:32:34.213Z,51659.47
2022-09-02T10:35:08.755Z,51643.40
2022-09-02T10:37:40.550Z,51644.61
2022-09-02T10:40:16.558Z,51644.21
2022-09-02T10:42:54.470Z,51656.66
2022-09-02T10:45:31.148Z,51645.41
2022-09-02T10:48:03.523Z,51646.21
2022-09-02T10:50:37.330Z,51628.54
2022-09-02T10:53:16.952Z,51618.09
2022-09-02T10:55:50.857Z,51619.70
2022-09-02T10:58:21.756Z,51626.13
2022-09-02T11:00:53.133Z,51619.70
2022-09-02T11:03:25.385Z,51625.72
2022-09-02T11:05:56.093Z,51626.52
2022-09-02T11:08:31.393Z,51615.27
2022-09-02T11:11:04.948Z,51611.66
2022-09-02T11:13:36.072Z,51608.45
2022-09-02T11:16:07.198Z,51606.84
2022-09-02T11:18:45.293Z,51617.69
2022-09-02T11:21:20.291Z,51604.83
2022-09-02T11:23:51.756Z,51606.84
2022-09-02T11:26:27.081Z,51595.99
2022-09-02T11:28:57.950Z,51603.22
2022-09-02T11:31:30.164Z,51604.83
2022-09-02T11:36:37.319Z,51575.09
2022-09-02T11:39:10.479Z,51573.09
2022-09-02T11:41:48.384Z,51588.76
2022-09-02T11:44:25.943Z,51575.50
2022-09-02T11:47:15.873Z,51580.32
2022-09-02T11:49:52.758Z,51585.14
2022-09-02T11:52:27.121Z,51578.71
2022-09-02T11:55:06.623Z,51583.13
2022-09-02T11:57:41.156Z,51586.75
2022-09-02T12:00:13.392Z,51577.10
2022-09-02T12:02:47.488Z,51585.54
2022-09-02T12:05:50.248Z,51571.08
2022-09-02T12:08:46.154Z,51583.13
2022-09-02T12:11:30.446Z,51565.05
2022-09-02T12:14:02.903Z,51569.07
2022-09-02T12:16:52.684Z,51562.64
2022-09-02T12:19:30.898Z,51557.42
2022-09-02T12:22:18.810Z,51553.80
2022-09-02T12:24:52.727Z,51553.00
2022-09-02T12:27:32.333Z,51548.98
2022-09-02T12:30:02.467Z,51540.14
2022-09-02T12:33:01.278Z,51538.94
2022-09-02T12:35:37.204Z,51534.52
2022-09-02T12:38:27.105Z,51519.65
2022-09-02T12:40:58.992Z,51532.91
2022-09-02T12:43:30.239Z,51532.51
2022-09-02T12:46:06.363Z,51528.89
2022-09-02T12:48:39.261Z,51530.90
2022-09-02T12:51:12.452Z,51519.65
2022-09-02T12:53:43.428Z,51520.05
2022-09-02T12:56:21.776Z,51513.22
2022-09-02T12:58:52.313Z,51522.46
2022-09-02T13:01:24.447Z,51519.25
2022-09-02T13:04:07.855Z,51514.02
2022-09-02T13:06:41.622Z,51520.05
2022-09-02T13:09:29.185Z,51522.46
2022-09-02T13:12:15.627Z,51525.27
2022-09-02T13:15:02.117Z,51505.59
2022-09-02T13:17:45.468Z,51510.41
2022-09-02T13:20:34.960Z,51520.85
2022-09-02T13:23:12.075Z,51511.61
2022-09-02T13:25:54.447Z,51495.14
2022-09-02T13:28:29.468Z,51501.57
2022-09-02T13:31:09.021Z,51504.78
2022-09-02T13:33:42.472Z,51495.54
2022-09-02T13:36:13.221Z,51505.18
2022-09-02T13:38:43.026Z,51499.16
2022-09-02T13:41:12.888Z,51511.62
2022-09-02T13:43:42.899Z,51518.45
2022-09-02T13:46:12.791Z,51524.87
2022-09-02T13:48:42.689Z,51512.02
2022-09-02T13:51:14.230Z,51509.20
2022-09-02T13:54:05.501Z,51498.36
2022-09-02T13:56:34.500Z,51500.37
2022-09-02T13:59:04.827Z,51495.14
2022-09-02T14:01:35.604Z,51498.35
2022-09-02T14:04:06.363Z,51496.75
2022-09-02T14:06:37.058Z,51495.14
2022-09-02T14:09:07.882Z,51495.54
2022-09-02T14:11:40.197Z,51487.10
2022-09-02T14:14:10.086Z,51516.04
2022-09-02T14:16:39.976Z,51520.05
2022-09-02T14:19:10.678Z,51512.02
2022-09-02T14:21:46.275Z,51513.22
2022-09-02T14:24:16.424Z,51520.86
2022-09-02T14:26:47.245Z,51524.07
2022-09-02T14:29:17.317Z,51523.66
2022-09-02T14:31:47.369Z,51532.10
2022-09-02T14:34:36.532Z,51529.29
2022-09-02T14:37:17.243Z,51520.86
2022-09-02T14:40:03.654Z,51502.77
2022-09-02T14:42:34.730Z,51541.35
2022-09-02T14:45:08.981Z,51534.92
2022-09-02T14:47:39.374Z,51569.47
2022-09-02T14:50:15.538Z,51556.61
2022-09-02T14:52:49.866Z,51575.09
2022-09-02T14:55:33.255Z,51570.68
2022-09-02T14:58:04.199Z,51565.86
2022-09-02T15:00:34.699Z,51568.67
2022-09-02T15:03:04.857Z,51568.66
2022-09-02T15:05:34.786Z,51571.88
2022-09-02T15:08:04.952Z,51591.57
2022-09-02T15:10:35.008Z,51587.55
2022-09-02T15:13:04.895Z,51581.13
2022-09-02T15:15:34.853Z,51583.13
2022-09-02T15:18:05.529Z,51582.33
2022-09-02T15:20:39.432Z,51591.97
2022-09-02T15:23:09.470Z,51606.04
2022-09-02T15:25:39.867Z,51615.27
2022-09-02T15:28:11.509Z,51617.69
2022-09-02T15:30:41.474Z,51620.50
2022-09-02T15:33:16.721Z,51619.70
2022-09-02T15:35:48.361Z,51642.60
2022-09-02T15:38:18.584Z,51622.11
2022-09-02T15:40:48.650Z,51653.45
2022-09-02T15:43:20.983Z,51643.80
2022-09-02T15:45:51.013Z,51657.06
2022-09-02T15:48:20.857Z,51663.09
2022-09-02T15:50:54.423Z,51661.08
2022-09-02T15:53:24.736Z,51664.30
2022-09-02T15:55:54.549Z,51673.94
2022-09-02T15:58:24.532Z,51690.01
2022-09-02T16:00:54.267Z,51682.38
2022-09-02T16:03:24.221Z,51681.17
2022-09-02T16:05:54.482Z,51688.80
2022-09-02T16:08:24.299Z,51698.85
2022-09-02T16:10:54.273Z,51702.07
2022-09-02T16:13:24.155Z,51703.27
2022-09-02T16:15:54.117Z,51698.05
2022-09-02T16:18:24.080Z,51702.47
2022-09-02T16:20:53.918Z,51698.45
2022-09-02T16:23:24.037Z,51712.91
2022-09-02T16:28:55.753Z,51715.32
2022-09-02T16:31:26.058Z,51725.77
2022-09-02T16:33:56.223Z,51717.34
2022-09-02T16:36:26.843Z,51716.53
2022-09-02T16:39:03.501Z,51733.01
2022-09-02T16:41:34.825Z,51723.36
2022-09-02T16:44:05.877Z,51728.18
2022-09-02T16:46:36.444Z,51747.47
2022-09-02T16:49:06.647Z,51730.59
2022-09-02T16:51:36.728Z,51731.80
2022-09-02T16:54:06.885Z,51737.43
2022-09-02T16:56:38.270Z,51747.87
2022-09-02T16:59:08.466Z,51734.21
2022-09-02T17:01:38.454Z,51723.76
2022-09-02T17:04:08.977Z,51748.27
2022-09-02T17:06:42.213Z,51745.46
2022-09-02T17:09:12.391Z,51746.67
2022-09-02T17:11:45.544Z,51751.49
2022-09-02T17:14:16.614Z,51752.29
2022-09-02T17:16:47.696Z,51741.04
2022-09-02T17:19:22.165Z,51741.84
2022-09-02T17:21:52.613Z,51748.27
2022-09-02T17:24:22.884Z,51752.29
2022-09-02T17:26:54.755Z,51744.66
2022-09-02T17:29:48.113Z,51755.10
2022-09-02T17:32:15.572Z,51754.30
2022-09-02T17:34:45.497Z,51753.49
2022-09-02T17:37:15.353Z,51743.85
2022-09-02T17:39:46.145Z,51752.69
2022-09-02T17:42:16.547Z,51743.45
2022-09-02T17:44:46.623Z,51751.49
2022-09-02T17:47:17.425Z,51761.13
2022-09-02T17:49:47.821Z,51747.87
2022-09-02T17:52:18.981Z,51754.30
2022-09-02T17:54:49.933Z,51766.76
2022-09-02T17:57:25.748Z,51758.72
2022-09-02T18:00:01.748Z,51770.77
2022-09-02T18:02:44.810Z,51765.55
2022-09-02T18:05:17.263Z,51753.50
2022-09-02T18:07:51.422Z,51754.70
2022-09-02T18:10:22.895Z,51754.70
2022-09-02T18:12:52.754Z,51765.15
2022-09-02T18:15:22.643Z,51787.65
2022-09-02T18:17:54.134Z,51775.20
2022-09-02T18:20:28.016Z,51782.43
2022-09-02T18:23:05.033Z,51778.41
2022-09-02T18:25:44.120Z,51769.97
2022-09-02T18:28:17.622Z,51778.01
2022-09-02T18:30:50.516Z,51779.21
2022-09-02T18:33:26.310Z,51784.84
2022-09-02T18:35:58.261Z,51776.80
2022-09-02T18:38:29.511Z,51785.24
2022-09-02T18:41:07.329Z,51783.64
2022-09-02T18:43:40.264Z,51778.41
2022-09-02T18:46:11.219Z,51792.07
2022-09-02T18:48:41.049Z,51791.67
2022-09-02T18:51:12.887Z,51798.10
2022-09-02T18:53:44.304Z,51795.69
2022-09-02T18:56:14.303Z,51789.66
2022-09-02T18:58:45.847Z,51801.31
2022-09-02T19:01:18.331Z,51799.71
2022-09-02T19:03:48.473Z,51796.89
2022-09-02T19:06:19.760Z,51787.25
2022-09-02T19:08:52.068Z,51804.93
2022-09-02T19:11:23.580Z,51799.71
2022-09-02T19:13:55.778Z,51810.96
2022-09-02T19:16:26.646Z,51814.98
2022-09-02T19:18:56.688Z,51804.93
2022-09-02T19:21:30.914Z,51802.11
2022-09-02T19:24:01.115Z,51804.13
2022-09-02T19:26:31.201Z,51806.14
2022-09-02T19:29:03.779Z,51806.54
2022-09-02T19:31:33.893Z,51826.23
2022-09-02T19:34:03.912Z,51808.14
2022-09-02T19:36:34.025Z,51815.77
2022-09-02T19:39:03.849Z,51829.04
2022-09-02T19:41:33.832Z,51822.61
2022-09-02T19:44:04.388Z,51814.57
2022-09-02T19:49:24.902Z,51818.19
2022-09-02T19:51:56.368Z,51803.32
2022-09-02T19:54:27.372Z,51826.22
2022-09-02T19:56:57.381Z,51831.85
2022-09-02T19:59:28.244Z,51826.23
2022-09-02T20:01:58.613Z,51831.85
2022-09-02T20:04:30.240Z,51824.62
2022-09-02T20:07:00.675Z,51832.66
2022-09-02T20:09:30.534Z,51833.05
2022-09-02T20:12:02.127Z,51813.37
2022-09-02T20:14:31.926Z,51830.24
2022-09-02T20:17:01.810Z,51832.25
2022-09-02T20:19:31.706Z,51841.49
2022-09-02T20:22:02.500Z,51833.46
2022-09-02T20:24:32.684Z,51833.86
2022-09-02T20:27:05.448Z,51835.47
2022-09-02T20:29:39.103Z,51833.05
2022-09-02T20:32:10.909Z,51846.32
2022-09-02T20:34:45.668Z,51838.28
2022-09-02T20:37:20.067Z,51844.71
2022-09-02T20:39:57.380Z,51830.65
2022-09-02T20:42:34.884Z,51861.59
2022-09-02T20:45:05.868Z,51835.46
2022-09-02T20:47:42.006Z,51849.93
2022-09-02T20:50:18.391Z,51818.59
2022-09-02T20:52:52.255Z,51854.35
2022-09-02T20:55:23.214Z,51849.53
2022-09-02T20:58:13.858Z,51860.38
2022-09-02T21:00:45.422Z,51844.71
2022-09-02T21:03:17.185Z,51857.57
2022-09-02T21:05:49.141Z,51847.93
2022-09-02T21:08:22.505Z,51847.52
2022-09-02T21:10:53.376Z,51869.63
2022-09-02T21:13:23.581Z,51846.32
2022-09-02T21:15:54.973Z,51845.92
2022-09-02T21:18:28.067Z,51860.78
2022-09-02T21:21:00.633Z,51857.97
2022-09-02T21:23:31.979Z,51836.67
2022-09-02T21:26:05.086Z,51867.62
2022-09-02T21:28:36.750Z,51844.71
2022-09-02T21:31:07.199Z,51840.29
2022-09-02T21:33:37.137Z,51843.91
2022-09-02T21:36:07.780Z,51848.73
2022-09-02T21:38:38.513Z,51870.02
2022-09-02T21:41:15.310Z,51845.11
2022-09-02T21:43:49.441Z,51846.32
2022-09-02T21:46:22.211Z,51854.75
2022-09-02T21:48:55.992Z,51858.77
2022-09-02T21:51:28.273Z,51852.34
2022-09-02T21:54:02.156Z,51853.15
2022-09-02T21:56:36.910Z,51848.73
2022-09-02T21:59:11.234Z,51861.59
2022-09-02T22:01:44.842Z,51872.84
2022-09-02T22:04:19.853Z,51845.91
2022-09-02T22:06:51.357Z,51866.81
2022-09-02T22:09:23.551Z,51859.58
2022-09-02T22:11:54.741Z,51850.74
2022-09-02T22:14:26.158Z,51876.05
2022-09-02T22:16:59.334Z,51876.05
2022-09-02T22:19:30.481Z,51866.01
2022-09-02T22:22:00.961Z,51889.31
2022-09-02T22:24:34.537Z,51861.99
2022-09-02T22:27:06.638Z,51872.44
2022-09-02T22:29:37.955Z,51879.66
2022-09-02T22:32:08.278Z,51868.02
2022-09-02T22:34:39.376Z,51859.98
2022-09-02T22:37:09.623Z,51870.83
2022-09-02T22:39:41.796Z,51879.67
2022-09-02T22:42:14.057Z,51864.40
2022-09-02T22:45:03.127Z,51880.87
2022-09-02T22:47:50.662Z,51892.52
2022-09-02T22:50:38.927Z,51858.37
2022-09-02T22:53:08.895Z,51878.87
2022-09-02T22:55:47.180Z,51874.85
2022-09-02T22:58:21.472Z,51896.55
2022-09-02T23:00:54.471Z,51872.43
2022-09-02T23:03:26.099Z,51882.88
2022-09-02T23:05:58.647Z,51877.66
2022-09-02T23:08:28.743Z,51876.86
2022-09-02T23:10:59.039Z,51871.23
2022-09-02T23:13:33.567Z,51869.22
2022-09-02T23:16:06.433Z,51890.12
2022-09-02T23:18:38.144Z,51883.29
2022-09-02T23:21:09.269Z,51879.67
2022-09-02T23:23:39.915Z,51876.86
2022-09-02T23:26:12.409Z,51871.63
2022-09-02T23:28:49.214Z,51879.67
2022-09-02T23:31:22.352Z,51883.28
2022-09-02T23:33:53.917Z,51891.32
2022-09-02T23:36:26.218Z,51894.13
2022-09-02T23:39:07.208Z,51876.45
2022-09-02T23:41:39.050Z,51880.07
2022-09-02T23:44:09.174Z,51897.35
2022-09-02T23:46:43.015Z,51880.07
2022-09-02T23:49:15.169Z,51879.67
2022-09-02T23:51:47.671Z,51880.88
2022-09-02T23:54:25.573Z,51884.09
2022-09-02T23:56:59.760Z,51875.65
2022-09-02T23:59:34.308Z,51888.11
